createdAt,value
2023-03-06T00:01:48.775Z,99935.25
2023-03-06T00:04:51.444Z,99934.00
2023-03-06T00:07:53.613Z,99933.78
2023-03-06T00:10:56.645Z,99926.38
2023-03-06T00:13:58.871Z,99931.69
2023-03-06T00:17:01.288Z,99929.78
2023-03-06T00:20:04.995Z,99931.94
2023-03-06T00:23:08.579Z,99933.63
2023-03-06T00:26:10.827Z,99930.38
2023-03-06T00:29:14.304Z,99926.16
2023-03-06T00:32:16.512Z,99920.69
2023-03-06T00:35:19.144Z,99918.91
2023-03-06T00:38:21.308Z,99923.16
2023-03-06T00:41:24.998Z,99920.00
2023-03-06T00:44:27.138Z,99908.59
2023-03-06T00:47:30.085Z,99911.38
2023-03-06T00:50:35.088Z,99915.69
2023-03-06T00:53:37.557Z,99914.53
2023-03-06T00:56:39.830Z,99908.59
2023-03-06T00:59:42.461Z,99903.13
2023-03-06T01:02:44.637Z,99891.06
2023-03-06T01:05:47.050Z,99902.28
2023-03-06T01:08:49.260Z,99896.22
2023-03-06T01:11:52.785Z,99895.13
2023-03-06T01:14:54.847Z,99884.50
2023-03-06T01:17:57.305Z,99885.34
2023-03-06T01:20:59.430Z,99886.97
2023-03-06T01:24:02.076Z,99883.97
2023-03-06T01:27:04.249Z,99882.50
2023-03-06T01:30:07.359Z,99881.13
2023-03-06T01:33:09.570Z,99879.56
2023-03-06T01:36:12.797Z,99875.25
2023-03-06T01:39:14.960Z,99877.97
2023-03-06T01:42:17.393Z,99864.63
2023-03-06T01:45:19.447Z,99864.47
2023-03-06T01:48:24.068Z,99872.13
2023-03-06T01:51:32.016Z,99857.34
2023-03-06T01:54:40.394Z,99860.56
2023-03-06T01:57:45.273Z,99867.56
2023-03-06T02:00:47.894Z,99865.47
2023-03-06T02:03:51.290Z,99863.63
2023-03-06T02:06:55.040Z,99861.94
2023-03-06T02:09:58.388Z,99863.72
2023-03-06T02:13:00.950Z,99860.94
2023-03-06T02:16:03.707Z,99870.56
2023-03-06T02:19:08.968Z,99867.03
2023-03-06T02:22:11.611Z,99872.09
2023-03-06T02:25:33.896Z,99863.94
2023-03-06T02:28:36.230Z,99857.84
2023-03-06T02:31:38.669Z,99857.53
2023-03-06T02:34:54.917Z,99861.06
2023-03-06T02:38:02.441Z,99858.38
2023-03-06T02:41:08.266Z,99852.03
2023-03-06T02:44:10.717Z,99852.88
2023-03-06T02:47:12.993Z,99859.13
2023-03-06T02:50:15.510Z,99862.38
2023-03-06T02:53:19.602Z,99862.13
2023-03-06T02:56:22.462Z,99855.28
2023-03-06T02:59:24.853Z,99855.75
2023-03-06T03:02:27.894Z,99862.59
2023-03-06T03:05:30.521Z,99865.81
2023-03-06T03:08:34.705Z,99858.75
2023-03-06T03:11:37.229Z,99860.34
2023-03-06T03:14:40.057Z,99854.25
2023-03-06T03:17:42.727Z,99849.72
2023-03-06T03:20:45.160Z,99858.06
2023-03-06T03:23:47.327Z,99850.63
2023-03-06T03:26:49.922Z,99844.62
2023-03-06T03:29:53.014Z,99849.34
2023-03-06T03:32:55.579Z,99842.34
2023-03-06T03:35:58.985Z,99835.53
2023-03-06T03:39:02.010Z,99845.03
2023-03-06T03:42:04.453Z,99846.09
2023-03-06T03:45:07.790Z,99846.72
2023-03-06T03:48:10.114Z,99840.47
2023-03-06T03:51:16.435Z,99834.31
2023-03-06T03:54:19.378Z,99839.72
2023-03-06T03:57:22.456Z,99830.00
2023-03-06T04:00:25.585Z,99829.06
2023-03-06T04:03:29.081Z,99839.63
2023-03-06T04:06:31.418Z,99834.41
2023-03-06T04:09:34.321Z,99834.91
2023-03-06T04:12:37.241Z,99835.00
2023-03-06T04:15:39.744Z,99829.00
2023-03-06T04:18:42.439Z,99833.22
2023-03-06T04:21:45.084Z,99832.38
2023-03-06T04:24:49.822Z,99843.78
2023-03-06T04:27:52.745Z,99842.63
2023-03-06T04:30:54.984Z,99837.62
2023-03-06T04:33:58.146Z,99833.50
2023-03-06T04:37:00.808Z,99834.75
2023-03-06T04:40:04.203Z,99831.97
2023-03-06T04:43:06.543Z,99829.09
2023-03-06T04:46:10.945Z,99833.31
2023-03-06T04:49:13.144Z,99834.41
2023-03-06T04:52:15.600Z,99830.19
2023-03-06T04:55:18.762Z,99829.91
2023-03-06T04:58:21.307Z,99827.91
2023-03-06T05:01:23.538Z,99825.37
2023-03-06T05:04:26.039Z,99827.41
2023-03-06T05:07:28.352Z,99823.19
2023-03-06T05:10:30.800Z,99827.72
2023-03-06T05:13:33.385Z,99829.44
2023-03-06T05:16:35.956Z,99821.91
2023-03-06T05:19:38.416Z,99826.37
2023-03-06T05:22:41.746Z,99826.47
2023-03-06T05:25:44.044Z,99826.81
2023-03-06T05:28:46.564Z,99828.69
2023-03-06T05:31:48.824Z,99835.94
2023-03-06T05:34:51.537Z,99826.81
2023-03-06T05:37:53.827Z,99828.25
2023-03-06T05:40:56.603Z,99827.06
2023-03-06T05:43:59.058Z,99827.84
2023-03-06T05:47:02.468Z,99831.47
2023-03-06T05:50:05.509Z,99831.03
2023-03-06T05:53:08.064Z,99838.28
2023-03-06T05:56:10.626Z,99827.75
2023-03-06T05:59:13.117Z,99826.13
2023-03-06T06:02:15.949Z,99829.16
2023-03-06T06:05:18.535Z,99839.06
2023-03-06T06:08:21.163Z,99839.50
2023-03-06T06:11:23.652Z,99834.59
2023-03-06T06:14:26.167Z,99833.91
2023-03-06T06:17:28.716Z,99845.41
2023-03-06T06:20:30.837Z,99845.75
2023-03-06T06:23:33.385Z,99840.78
2023-03-06T06:26:35.577Z,99845.16
2023-03-06T06:29:38.068Z,99849.66
2023-03-06T06:32:40.653Z,99848.53
2023-03-06T06:35:43.236Z,99842.84
2023-03-06T06:38:46.317Z,99849.78
2023-03-06T06:42:02.617Z,99857.22
2023-03-06T06:45:12.799Z,99852.91
2023-03-06T06:48:16.691Z,99853.63
2023-03-06T06:51:20.843Z,99850.63
2023-03-06T06:54:23.411Z,99852.66
2023-03-06T06:57:25.697Z,99850.38
2023-03-06T07:00:28.577Z,99847.22
2023-03-06T07:03:30.852Z,99844.28
2023-03-06T07:06:33.570Z,99844.16
2023-03-06T07:09:35.854Z,99851.88
2023-03-06T07:12:38.344Z,99859.91
2023-03-06T07:15:40.560Z,99855.25
2023-03-06T07:18:43.912Z,99862.63
2023-03-06T07:21:46.060Z,99867.78
2023-03-06T07:24:48.648Z,99870.56
2023-03-06T07:27:54.143Z,99862.19
2023-03-06T07:30:56.978Z,99863.72
2023-03-06T07:33:59.539Z,99865.50
2023-03-06T07:37:02.040Z,99873.19
2023-03-06T07:40:06.223Z,99874.03
2023-03-06T07:43:18.683Z,99866.50
2023-03-06T07:46:22.281Z,99872.69
2023-03-06T07:49:24.841Z,99876.53
2023-03-06T07:52:27.045Z,99872.84
2023-03-06T07:55:29.549Z,99876.63
2023-03-06T07:58:33.669Z,99885.50
2023-03-06T08:01:40.218Z,99880.16
2023-03-06T08:04:42.842Z,99883.38
2023-03-06T08:07:45.719Z,99882.62
2023-03-06T08:10:49.263Z,99891.66
2023-03-06T08:13:53.690Z,99891.47
2023-03-06T08:16:56.786Z,99890.91
2023-03-06T08:19:59.107Z,99896.22
2023-03-06T08:23:01.580Z,99881.75
2023-03-06T08:26:07.110Z,99881.66
2023-03-06T08:29:09.976Z,99876.03
2023-03-06T08:32:12.299Z,99883.25
2023-03-06T08:35:14.824Z,99877.19
2023-03-06T08:38:17.053Z,99879.13
2023-03-06T08:41:20.524Z,99871.97
2023-03-06T08:44:22.743Z,99870.63
2023-03-06T08:47:25.503Z,99869.78
2023-03-06T08:50:27.882Z,99873.34
2023-03-06T08:53:42.094Z,99871.06
2023-03-06T08:56:45.734Z,99873.94
2023-03-06T08:59:48.195Z,99868.75
2023-03-06T09:02:51.141Z,99873.41
2023-03-06T09:05:53.663Z,99875.41
2023-03-06T09:08:56.333Z,99869.84
2023-03-06T09:11:58.812Z,99861.09
2023-03-06T09:15:03.683Z,99853.47
2023-03-06T09:18:06.223Z,99850.09
2023-03-06T09:21:10.032Z,99854.72
2023-03-06T09:24:12.702Z,99851.69
2023-03-06T09:27:14.927Z,99846.94
2023-03-06T09:30:18.890Z,99837.72
2023-03-06T09:33:21.292Z,99833.44
2023-03-06T09:36:23.933Z,99820.47
2023-03-06T09:39:26.451Z,99830.31
2023-03-06T09:42:29.168Z,99832.75
2023-03-06T09:45:37.047Z,99834.37
2023-03-06T09:48:58.053Z,99828.13
2023-03-06T09:52:39.070Z,99829.34
2023-03-06T09:55:44.169Z,99827.28
2023-03-06T09:58:54.024Z,99824.41
2023-03-06T10:01:59.361Z,99819.00
2023-03-06T10:05:06.759Z,99830.16
2023-03-06T10:08:23.792Z,99819.56
2023-03-06T10:11:38.358Z,99816.78
2023-03-06T10:14:48.474Z,99812.00
2023-03-06T10:17:51.980Z,99814.47
2023-03-06T10:21:18.670Z,99808.19
2023-03-06T10:24:43.299Z,99816.00
2023-03-06T10:27:48.615Z,99815.06
2023-03-06T10:31:03.173Z,99812.66
2023-03-06T10:34:08.461Z,99802.50
2023-03-06T10:37:22.226Z,99803.59
2023-03-06T10:40:35.327Z,99803.41
2023-03-06T10:43:45.832Z,99797.22
2023-03-06T10:46:51.539Z,99789.72
2023-03-06T10:50:08.045Z,99784.25
2023-03-06T10:53:24.605Z,99783.94
2023-03-06T10:56:35.556Z,99773.81
2023-03-06T10:59:51.229Z,99764.00
2023-03-06T11:03:06.532Z,99766.28
2023-03-06T11:06:31.700Z,99759.28
2023-03-06T11:09:34.457Z,99749.16
2023-03-06T11:12:38.933Z,99743.94
2023-03-06T11:16:05.309Z,99731.44
2023-03-06T11:19:28.770Z,99728.91
2023-03-06T11:22:31.614Z,99714.84
2023-03-06T11:25:39.886Z,99710.16
2023-03-06T11:28:45.932Z,99702.34
2023-03-06T11:31:51.577Z,99697.56
2023-03-06T11:35:04.145Z,99693.97
2023-03-06T11:38:14.304Z,99683.72
2023-03-06T11:41:26.108Z,99670.75
2023-03-06T11:44:36.880Z,99670.06
2023-03-06T11:48:14.812Z,99654.38
2023-03-06T11:51:31.441Z,99639.38
2023-03-06T11:54:34.290Z,99644.25
2023-03-06T11:57:48.171Z,99630.00
2023-03-06T12:01:00.509Z,99630.56
2023-03-06T12:04:37.364Z,99618.44
2023-03-06T12:07:48.575Z,99613.44
2023-03-06T12:11:05.458Z,99609.34
2023-03-06T12:14:40.276Z,99612.37
2023-03-06T12:18:13.841Z,99607.66
2023-03-06T12:21:44.751Z,99596.69
2023-03-06T12:25:09.536Z,99595.16
2023-03-06T12:28:24.709Z,99598.97
2023-03-06T12:31:27.379Z,99594.56
2023-03-06T12:34:52.504Z,99595.75
2023-03-06T12:38:07.696Z,99590.63
2023-03-06T12:41:35.363Z,99589.78
2023-03-06T12:44:59.383Z,99585.81
2023-03-06T12:48:02.121Z,99589.06
2023-03-06T12:51:07.691Z,99593.38
2023-03-06T12:54:12.632Z,99582.44
2023-03-06T12:57:15.814Z,99573.09
2023-03-06T13:00:34.078Z,99573.56
2023-03-06T13:03:55.351Z,99574.63
2023-03-06T13:07:19.079Z,99573.06
2023-03-06T13:10:35.631Z,99578.84
2023-03-06T13:13:46.353Z,99568.50
2023-03-06T13:16:48.961Z,99566.28
2023-03-06T13:20:13.024Z,99556.25
2023-03-06T13:23:34.144Z,99556.56
2023-03-06T13:26:36.368Z,99549.06
2023-03-06T13:29:38.798Z,99557.38
2023-03-06T13:32:41.208Z,99540.94
2023-03-06T13:35:52.822Z,99545.13
2023-03-06T13:39:11.807Z,99543.94
2023-03-06T13:42:57.083Z,99535.56
2023-03-06T13:46:19.469Z,99525.22
2023-03-06T13:49:24.718Z,99524.38
2023-03-06T13:52:33.571Z,99521.94
2023-03-06T13:56:04.276Z,99524.22
2023-03-06T13:59:35.789Z,99523.47
2023-03-06T14:03:07.694Z,99512.53
2023-03-06T14:06:35.049Z,99514.75
2023-03-06T14:09:52.321Z,99512.69
2023-03-06T14:13:02.115Z,99507.25
2023-03-06T14:16:17.496Z,99510.19
2023-03-06T14:19:20.830Z,99503.72
2023-03-06T14:22:24.928Z,99495.91
2023-03-06T14:25:31.377Z,99506.37
2023-03-06T14:28:35.670Z,99508.72
2023-03-06T14:31:42.736Z,99501.88
2023-03-06T14:34:46.733Z,99516.59
2023-03-06T14:37:55.591Z,99505.97
2023-03-06T14:40:58.526Z,99499.94
2023-03-06T14:44:22.224Z,99506.56
2023-03-06T14:47:33.837Z,99501.47
2023-03-06T14:50:36.747Z,99498.50
2023-03-06T14:53:39.061Z,99502.81
2023-03-06T14:56:44.045Z,99500.94
2023-03-06T14:59:56.208Z,99500.19
2023-03-06T15:02:59.440Z,99486.31
2023-03-06T15:06:02.931Z,99480.72
2023-03-06T15:09:15.858Z,99489.75
2023-03-06T15:12:21.319Z,99482.94
2023-03-06T15:15:26.316Z,99489.44
2023-03-06T15:18:35.453Z,99481.97
2023-03-06T15:21:39.067Z,99480.94
2023-03-06T15:24:41.357Z,99483.03
2023-03-06T15:28:03.331Z,99474.25
2023-03-06T15:31:24.690Z,99466.44
2023-03-06T15:34:27.599Z,99467.50
2023-03-06T15:37:29.822Z,99472.78
2023-03-06T15:40:32.974Z,99474.13
2023-03-06T15:43:39.349Z,99472.66
2023-03-06T15:46:42.186Z,99471.19
2023-03-06T15:49:44.738Z,99470.13
2023-03-06T15:52:48.672Z,99470.25
2023-03-06T15:55:51.668Z,99477.31
2023-03-06T15:58:54.909Z,99475.59
2023-03-06T16:01:59.554Z,99476.56
2023-03-06T16:05:02.740Z,99473.81
2023-03-06T16:08:05.905Z,99485.06
2023-03-06T16:11:17.232Z,99488.19
2023-03-06T16:14:23.566Z,99480.59
2023-03-06T16:17:26.189Z,99477.44
2023-03-06T16:20:29.600Z,99483.00
2023-03-06T16:23:31.947Z,99483.44
2023-03-06T16:26:35.516Z,99486.22
2023-03-06T16:29:37.978Z,99480.75
2023-03-06T16:32:40.663Z,99487.34
2023-03-06T16:35:46.508Z,99480.75
2023-03-06T16:38:49.638Z,99490.84
2023-03-06T16:41:52.751Z,99496.22
2023-03-06T16:44:54.933Z,99501.00
2023-03-06T16:47:58.798Z,99499.88
2023-03-06T16:51:01.921Z,99501.91
2023-03-06T16:54:04.621Z,99500.44
2023-03-06T16:57:06.842Z,99504.19
2023-03-06T17:00:11.368Z,99504.63
2023-03-06T17:03:13.558Z,99496.56
2023-03-06T17:06:21.730Z,99506.72
2023-03-06T17:09:23.960Z,99502.22
2023-03-06T17:12:26.410Z,99499.75
2023-03-06T17:15:28.833Z,99499.75
2023-03-06T17:18:31.641Z,99498.66
2023-03-06T17:21:35.370Z,99507.91
2023-03-06T17:24:38.226Z,99520.06
2023-03-06T17:27:40.536Z,99512.19
2023-03-06T17:30:43.052Z,99497.63
2023-03-06T17:33:46.315Z,99502.31
2023-03-06T17:36:48.752Z,99497.72
2023-03-06T17:39:51.082Z,99502.75
2023-03-06T17:42:53.769Z,99503.97
2023-03-06T17:45:55.919Z,99498.97
2023-03-06T17:48:58.376Z,99498.56
2023-03-06T17:52:02.826Z,99493.66
2023-03-06T17:55:06.751Z,99491.16
2023-03-06T17:58:11.387Z,99494.25
2023-03-06T18:01:18.864Z,99498.91
2023-03-06T18:04:21.345Z,99503.13
2023-03-06T18:07:24.034Z,99499.97
2023-03-06T18:10:26.552Z,99501.91
2023-03-06T18:13:28.739Z,99504.44
2023-03-06T18:16:31.708Z,99510.53
2023-03-06T18:19:33.983Z,99507.25
2023-03-06T18:22:36.425Z,99511.66
2023-03-06T18:25:38.623Z,99502.19
2023-03-06T18:28:47.518Z,99504.53
2023-03-06T18:31:50.354Z,99503.97
2023-03-06T18:34:55.032Z,99493.28
2023-03-06T18:37:57.205Z,99498.34
2023-03-06T18:40:59.717Z,99497.16
2023-03-06T18:44:02.506Z,99494.62
2023-03-06T18:47:05.179Z,99497.53
2023-03-06T18:50:07.724Z,99498.06
2023-03-06T18:53:10.164Z,99504.06
2023-03-06T18:56:21.338Z,99505.56
2023-03-06T18:59:23.892Z,99507.91
2023-03-06T19:02:26.288Z,99507.63
2023-03-06T19:05:28.849Z,99509.97
2023-03-06T19:08:31.045Z,99508.38
2023-03-06T19:11:34.128Z,99504.06
2023-03-06T19:14:36.700Z,99508.97
2023-03-06T19:17:39.269Z,99505.13
2023-03-06T19:20:42.198Z,99510.63
2023-03-06T19:23:45.092Z,99502.75
2023-03-06T19:26:47.272Z,99489.50
2023-03-06T19:29:49.743Z,99500.47
2023-03-06T19:32:53.442Z,99502.34
2023-03-06T19:35:55.985Z,99496.59
2023-03-06T19:38:59.963Z,99489.75
2023-03-06T19:42:04.562Z,99490.16
2023-03-06T19:45:07.719Z,99490.16
2023-03-06T19:48:12.368Z,99485.75
2023-03-06T19:51:14.601Z,99498.13
2023-03-06T19:54:17.398Z,99500.44
2023-03-06T19:57:20.256Z,99509.53
2023-03-06T20:00:22.734Z,99498.31
2023-03-06T20:03:25.220Z,99483.16
2023-03-06T20:06:33.379Z,99482.41
2023-03-06T20:09:35.903Z,99473.69
2023-03-06T20:12:38.567Z,99473.22
2023-03-06T20:15:41.078Z,99480.50
2023-03-06T20:18:43.436Z,99485.09
2023-03-06T20:21:45.945Z,99484.44
2023-03-06T20:24:48.145Z,99482.47
2023-03-06T20:27:50.586Z,99486.41
2023-03-06T20:30:52.775Z,99480.81
2023-03-06T20:33:58.355Z,99478.94
2023-03-06T20:37:01.010Z,99478.28
2023-03-06T20:40:04.351Z,99491.72
2023-03-06T20:43:07.318Z,99489.09
2023-03-06T20:46:11.081Z,99495.59
2023-03-06T20:49:14.478Z,99495.78
2023-03-06T20:52:16.791Z,99489.03
2023-03-06T20:55:18.901Z,99500.34
2023-03-06T20:58:23.247Z,99505.91
2023-03-06T21:01:38.401Z,99497.44
2023-03-06T21:04:41.119Z,99496.41
2023-03-06T21:07:43.417Z,99502.31
2023-03-06T21:10:46.731Z,99497.81
2023-03-06T21:13:48.966Z,99495.75
2023-03-06T21:16:51.460Z,99502.22
2023-03-06T21:19:53.720Z,99505.87
2023-03-06T21:22:56.317Z,99495.84
2023-03-06T21:25:58.529Z,99508.13
2023-03-06T21:29:01.917Z,99508.56
2023-03-06T21:32:04.549Z,99496.59
2023-03-06T21:35:07.105Z,99499.88
2023-03-06T21:38:09.615Z,99497.16
2023-03-06T21:41:17.517Z,99497.25
2023-03-06T21:44:19.830Z,99498.37
2023-03-06T21:47:22.259Z,99493.50
2023-03-06T21:50:25.632Z,99501.22
2023-03-06T21:53:27.985Z,99498.78
2023-03-06T21:56:30.172Z,99494.00
2023-03-06T21:59:32.664Z,99491.37
2023-03-06T22:02:35.480Z,99497.63
2023-03-06T22:05:37.948Z,99487.62
2023-03-06T22:08:41.145Z,99494.44
2023-03-06T22:11:43.609Z,99498.94
2023-03-06T22:14:46.079Z,99498.37
2023-03-06T22:17:48.615Z,99500.81
2023-03-06T22:20:52.127Z,99492.00
2023-03-06T22:23:57.325Z,99487.97
2023-03-06T22:26:59.480Z,99487.22
2023-03-06T22:30:01.972Z,99487.97
2023-03-06T22:33:04.341Z,99495.19
2023-03-06T22:36:09.974Z,99497.06
2023-03-06T22:39:13.346Z,99484.16
2023-03-06T22:42:15.668Z,99476.94
2023-03-06T22:45:17.707Z,99487.69
2023-03-06T22:48:20.943Z,99489.38
2023-03-06T22:51:23.126Z,99490.69
2023-03-06T22:54:25.899Z,99491.34
2023-03-06T22:57:28.067Z,99492.94
2023-03-06T23:00:30.488Z,99497.72
2023-03-06T23:03:32.615Z,99496.69
2023-03-06T23:06:37.592Z,99508.88
2023-03-06T23:09:39.739Z,99506.16
2023-03-06T23:13:00.489Z,99507.56
2023-03-06T23:16:21.396Z,99504.00
2023-03-06T23:19:42.278Z,99503.44
2023-03-06T23:23:03.188Z,99498.56
2023-03-06T23:26:19.332Z,99492.66
2023-03-06T23:29:22.373Z,99494.44
2023-03-06T23:32:24.826Z,99488.53
2023-03-06T23:35:27.374Z,99484.66
2023-03-06T23:38:30.078Z,99489.87
2023-03-06T23:41:32.645Z,99498.72
2023-03-06T23:44:35.679Z,99494.25
2023-03-06T23:47:38.128Z,99497.56
2023-03-06T23:50:41.008Z,99497.66
2023-03-06T23:53:45.385Z,99493.28
2023-03-06T23:56:47.555Z,99497.50
2023-03-06T23:59:50.128Z,99499.69
